Time;durP1;ratioP1;P1;durP2;ratioP2;P2;SDS_P1;SDS_P2;PMS_P1;PMS_P2;Temp;Humidity;BMP_temperature;BMP_pressure;BME280_temperature;BME280_humidity;BME280_pressure;Samples;Min_cycle;Max_cycle;Signal;HPM_P1;HPM_P2
2022/01/26 00:06:27;;;;;;;;;;;22.20;47.00;;;;;;5082418;28;19949;-72
2022/01/26 00:08:53;;;;;;;;;;;22.10;47.00;;;;;;5089678;28;19916;-70
2022/01/26 00:11:18;;;;;;;;;;;22.10;47.10;;;;;;5082636;28;20360;-69
2022/01/26 00:13:44;;;;;;;;;;;22.10;47.10;;;;;;5083352;28;19930;-71
2022/01/26 00:16:20;;;;;;;;;;;22.10;47.10;;;;;;5083492;28;19920;-70
2022/01/26 00:18:45;;;;;;;;;;;22.10;47.30;;;;;;5087006;28;19932;-72
2022/01/26 00:21:24;;;;;;;;;;;22.10;47.30;;;;;;5080145;28;19943;-69
2022/01/26 00:26:57;;;;;;;;;;;22.00;47.20;;;;;;5090283;28;20019;-71
2022/01/26 00:29:18;;;;;;;;;;;22.00;47.30;;;;;;5078423;28;20353;-70
2022/01/26 00:40:01;;;;;;;;;;;21.90;47.30;;;;;;5086878;28;19938;-71
2022/01/26 00:42:32;;;;;;;;;;;21.90;47.30;;;;;;5083878;28;19916;-70
2022/01/26 00:44:57;;;;;;;;;;;21.90;47.30;;;;;;5084671;28;19989;-71
2022/01/26 00:47:23;;;;;;;;;;;21.90;47.30;;;;;;5087553;28;19924;-71
2022/01/26 00:49:50;;;;;;;;;;;21.80;47.30;;;;;;5087831;28;20376;-70
2022/01/26 00:52:25;;;;;;;;;;;21.80;47.30;;;;;;5084046;28;19920;-71
2022/01/26 00:54:51;;;;;;;;;;;21.80;47.40;;;;;;5087750;28;19916;-70
2022/01/26 00:57:16;;;;;;;;;;;21.80;47.40;;;;;;5086291;28;19985;-71
2022/01/26 00:59:42;;;;;;;;;;;21.80;47.50;;;;;;5088749;28;19952;-71
2022/01/26 01:02:07;;;;;;;;;;;21.80;47.50;;;;;;5085871;28;19942;-69
2022/01/26 01:04:33;;;;;;;;;;;21.70;47.50;;;;;;5087496;28;19966;-72
2022/01/26 01:07:01;;;;;;;;;;;21.70;47.50;;;;;;5087044;28;19919;-71
2022/01/26 01:09:32;;;;;;;;;;;21.70;47.50;;;;;;5085520;28;19923;-71
2022/01/26 01:11:57;;;;;;;;;;;21.70;47.60;;;;;;5085584;28;19916;-71
2022/01/26 01:14:24;;;;;;;;;;;21.70;47.50;;;;;;5080817;28;19931;-69
2022/01/26 01:16:52;;;;;;;;;;;21.60;47.50;;;;;;5083415;28;19962;-71
2022/01/26 01:19:44;;;;;;;;;;;21.60;47.50;;;;;;5086477;28;19974;-71
2022/01/26 01:22:29;;;;;;;;;;;21.60;47.50;;;;;;5085129;28;19915;-70
2022/01/26 01:30:22;;;;;;;;;;;21.50;47.60;;;;;;5083814;28;20293;-71
2022/01/26 01:32:53;;;;;;;;;;;21.60;47.70;;;;;;5085293;28;19927;-71
2022/01/26 01:35:19;;;;;;;;;;;21.50;47.60;;;;;;5088075;28;19923;-71
2022/01/26 01:37:45;;;;;;;;;;;21.50;47.70;;;;;;5087672;28;19912;-71
2022/01/26 01:40:11;;;;;;;;;;;21.50;47.70;;;;;;5082802;28;20234;-69
2022/01/26 01:42:37;;;;;;;;;;;21.50;47.80;;;;;;5081334;28;19965;-71
2022/01/26 01:45:03;;;;;;;;;;;21.50;47.70;;;;;;5076090;28;20001;-70
2022/01/26 01:47:28;;;;;;;;;;;21.40;47.70;;;;;;5084958;28;19923;-71
2022/01/26 01:49:54;;;;;;;;;;;21.40;47.70;;;;;;5087509;28;20805;-71
2022/01/26 01:52:19;;;;;;;;;;;21.40;47.80;;;;;;5084495;28;20040;-69
2022/01/26 01:54:51;;;;;;;;;;;21.40;47.80;;;;;;5087109;28;20368;-69
2022/01/26 01:57:22;;;;;;;;;;;21.40;47.80;;;;;;5080526;28;20019;-73
2022/01/26 01:59:47;;;;;;;;;;;21.40;47.80;;;;;;5084288;28;19916;-69
2022/01/26 02:02:13;;;;;;;;;;;21.40;47.80;;;;;;5084053;28;20402;-69
2022/01/26 02:04:39;;;;;;;;;;;21.30;47.80;;;;;;5083459;28;19918;-71
2022/01/26 02:07:04;;;;;;;;;;;21.30;47.80;;;;;;5084726;28;19918;-71
2022/01/26 02:09:29;;;;;;;;;;;21.30;47.80;;;;;;5084692;28;19912;-71
2022/01/26 02:11:57;;;;;;;;;;;21.30;47.80;;;;;;5083040;28;19917;-71
2022/01/26 02:14:31;;;;;;;;;;;21.30;47.90;;;;;;5080849;28;19928;-71
2022/01/26 02:54:52;;;;;;;;;;;21.10;48.00;;;;;;5082997;28;20387;-70
2022/01/26 02:57:48;;;;;;;;;;;21.10;48.00;;;;;;5080039;28;20364;-69
2022/01/26 03:00:28;;;;;;;;;;;21.20;48.00;;;;;;5082600;28;19920;-71
2022/01/26 03:05:23;;;;;;;;;;;21.10;48.10;;;;;;5082945;28;20448;-71
2022/01/26 03:07:55;;;;;;;;;;;21.10;48.10;;;;;;5085106;28;19920;-69
2022/01/26 03:10:33;;;;;;;;;;;21.10;48.10;;;;;;5085648;28;20345;-69
2022/01/26 03:13:14;;;;;;;;;;;21.10;48.10;;;;;;5078154;28;20011;-69
2022/01/26 03:15:45;;;;;;;;;;;21.10;48.10;;;;;;5082393;28;19919;-69
2022/01/26 03:20:38;;;;;;;;;;;21.00;48.20;;;;;;5084908;28;19928;-71
2022/01/26 03:29:12;;;;;;;;;;;21.00;48.20;;;;;;5078196;28;20401;-70
2022/01/26 03:32:00;;;;;;;;;;;21.00;48.20;;;;;;5080298;28;20014;-70
2022/01/26 03:34:17;;;;;;;;;;;21.00;48.20;;;;;;5084400;28;19919;-70
2022/01/26 03:36:48;;;;;;;;;;;21.00;48.20;;;;;;5083951;28;19943;-71
2022/01/26 03:39:16;;;;;;;;;;;21.00;48.20;;;;;;5081330;28;19971;-70
2022/01/26 03:41:46;;;;;;;;;;;20.90;48.20;;;;;;5088183;28;19961;-70
2022/01/26 03:44:12;;;;;;;;;;;20.90;48.20;;;;;;5087606;28;19947;-68
2022/01/26 03:46:37;;;;;;;;;;;21.00;48.20;;;;;;5089478;28;19931;-69
2022/01/26 03:49:04;;;;;;;;;;;21.00;48.20;;;;;;5086718;28;19981;-69
2022/01/26 03:51:29;;;;;;;;;;;20.90;48.20;;;;;;5085827;28;19919;-68
2022/01/26 03:53:55;;;;;;;;;;;20.90;48.20;;;;;;5084249;28;19916;-70
2022/01/26 03:56:20;;;;;;;;;;;20.90;48.30;;;;;;5088514;28;19943;-68
2022/01/26 03:58:46;;;;;;;;;;;20.90;48.30;;;;;;5086932;28;20464;-71
2022/01/26 04:01:12;;;;;;;;;;;20.90;48.30;;;;;;5090161;28;19908;-70
2022/01/26 04:03:38;;;;;;;;;;;20.90;48.40;;;;;;5085234;28;19916;-70
2022/01/26 04:06:03;;;;;;;;;;;20.90;48.40;;;;;;5088691;28;20255;-71
2022/01/26 04:08:31;;;;;;;;;;;20.90;48.40;;;;;;5088132;28;20442;-69
2022/01/26 04:13:28;;;;;;;;;;;20.80;48.40;;;;;;5085130;28;19920;-70
2022/01/26 04:15:54;;;;;;;;;;;20.80;48.40;;;;;;5088857;28;19923;-70
2022/01/26 04:18:26;;;;;;;;;;;20.80;48.50;;;;;;5086235;28;19917;-68
2022/01/26 04:20:55;;;;;;;;;;;20.80;48.40;;;;;;5085740;28;19948;-70
2022/01/26 04:23:33;;;;;;;;;;;20.80;48.40;;;;;;5083661;28;19940;-70
2022/01/26 04:25:58;;;;;;;;;;;20.80;48.40;;;;;;5088335;28;20074;-70
2022/01/26 04:28:31;;;;;;;;;;;20.80;48.50;;;;;;5084875;28;20003;-68
2022/01/26 04:30:56;;;;;;;;;;;20.80;48.50;;;;;;5089638;28;19916;-70
2022/01/26 04:33:22;;;;;;;;;;;20.80;48.50;;;;;;5081279;28;20021;-70
2022/01/26 04:35:56;;;;;;;;;;;20.80;48.60;;;;;;5090620;28;19920;-70
2022/01/26 04:38:31;;;;;;;;;;;20.80;48.60;;;;;;5077657;28;20260;-70
2022/01/26 04:41:28;;;;;;;;;;;20.80;48.60;;;;;;5088344;28;19923;-68
2022/01/26 04:43:45;;;;;;;;;;;20.80;49.10;;;;;;5080870;28;19999;-68
2022/01/26 04:46:10;;;;;;;;;;;20.80;48.60;;;;;;5085806;28;20010;-70
2022/01/26 04:48:36;;;;;;;;;;;20.80;48.60;;;;;;5085987;28;20011;-70
2022/01/26 04:51:01;;;;;;;;;;;20.80;48.60;;;;;;5085010;28;19913;-70
2022/01/26 04:53:27;;;;;;;;;;;20.70;48.60;;;;;;5085876;28;19920;-69
2022/01/26 04:55:52;;;;;;;;;;;20.70;48.60;;;;;;5086918;28;20005;-69
2022/01/26 04:58:18;;;;;;;;;;;20.70;48.60;;;;;;5082849;28;19920;-70
2022/01/26 05:00:44;;;;;;;;;;;20.80;48.70;;;;;;5079762;28;20198;-70
2022/01/26 05:03:10;;;;;;;;;;;20.70;48.60;;;;;;5085186;28;19912;-68
2022/01/26 05:05:35;;;;;;;;;;;20.70;48.60;;;;;;5088624;28;19912;-70
2022/01/26 05:08:01;;;;;;;;;;;20.70;48.60;;;;;;5083388;28;20018;-69
2022/01/26 05:10:27;;;;;;;;;;;20.70;48.70;;;;;;5086716;28;20390;-70
2022/01/26 05:12:53;;;;;;;;;;;20.70;48.70;;;;;;5080597;28;19962;-70
2022/01/26 05:15:22;;;;;;;;;;;20.70;48.70;;;;;;5086091;28;19912;-68
2022/01/26 05:17:47;;;;;;;;;;;20.70;49.20;;;;;;5086528;28;20007;-69
2022/01/26 05:20:13;;;;;;;;;;;20.70;48.70;;;;;;5085817;28;20393;-69
2022/01/26 05:22:40;;;;;;;;;;;20.70;48.70;;;;;;5082308;28;19923;-70
2022/01/26 05:25:06;;;;;;;;;;;20.70;48.70;;;;;;5087042;28;19912;-68
2022/01/26 05:27:32;;;;;;;;;;;20.70;48.70;;;;;;5077537;28;20387;-70
2022/01/26 05:29:57;;;;;;;;;;;20.70;48.70;;;;;;5084994;28;19943;-69
2022/01/26 05:32:23;;;;;;;;;;;20.70;48.80;;;;;;5087308;28;20050;-71
2022/01/26 05:34:48;;;;;;;;;;;20.70;48.80;;;;;;5089396;28;19920;-70
2022/01/26 05:37:14;;;;;;;;;;;20.70;48.80;;;;;;5082579;28;19986;-69
2022/01/26 05:39:39;;;;;;;;;;;20.70;48.80;;;;;;5082756;28;20487;-70
2022/01/26 05:42:08;;;;;;;;;;;20.60;48.80;;;;;;5083977;28;19920;-70
2022/01/26 05:44:34;;;;;;;;;;;20.60;48.80;;;;;;5084878;28;19945;-69
2022/01/26 05:47:00;;;;;;;;;;;20.60;48.80;;;;;;5085791;28;19916;-70
2022/01/26 05:49:26;;;;;;;;;;;20.60;48.90;;;;;;5085473;28;19934;-71
2022/01/26 05:51:52;;;;;;;;;;;20.60;48.90;;;;;;5080646;28;19967;-70
2022/01/26 05:54:17;;;;;;;;;;;20.60;48.90;;;;;;5081007;28;19981;-70
2022/01/26 05:56:44;;;;;;;;;;;20.60;48.90;;;;;;5086865;28;20302;-69
2022/01/26 05:59:10;;;;;;;;;;;20.60;49.00;;;;;;5084029;28;19965;-70
2022/01/26 06:01:36;;;;;;;;;;;20.60;49.00;;;;;;5082501;28;19912;-69
2022/01/26 06:04:02;;;;;;;;;;;20.60;49.00;;;;;;5084247;28;19912;-69
2022/01/26 06:06:28;;;;;;;;;;;20.60;49.10;;;;;;5081994;28;19917;-70
2022/01/26 06:08:53;;;;;;;;;;;20.60;49.10;;;;;;5084141;28;19920;-70
2022/01/26 06:11:19;;;;;;;;;;;20.60;49.10;;;;;;5083596;28;20452;-70
2022/01/26 06:13:44;;;;;;;;;;;20.60;49.10;;;;;;5083333;28;19923;-68
2022/01/26 06:16:11;;;;;;;;;;;20.60;49.10;;;;;;5086381;28;19915;-67
2022/01/26 06:18:36;;;;;;;;;;;20.60;49.10;;;;;;5085989;28;20385;-68
2022/01/26 06:21:02;;;;;;;;;;;20.60;49.20;;;;;;5082417;28;19942;-70
2022/01/26 06:23:27;;;;;;;;;;;20.60;49.20;;;;;;5083541;28;20435;-70
2022/01/26 06:25:57;;;;;;;;;;;20.50;49.20;;;;;;5087887;28;19920;-71
2022/01/26 06:28:24;;;;;;;;;;;20.50;49.20;;;;;;5084326;28;20364;-71
2022/01/26 06:30:52;;;;;;;;;;;20.50;49.20;;;;;;5078860;28;19959;-70
2022/01/26 06:33:18;;;;;;;;;;;20.50;49.20;;;;;;5081723;28;19920;-70
2022/01/26 06:35:44;;;;;;;;;;;20.50;49.20;;;;;;5086345;28;19923;-70
2022/01/26 06:38:09;;;;;;;;;;;20.50;49.30;;;;;;5087816;28;19923;-69
2022/01/26 06:40:35;;;;;;;;;;;20.50;49.20;;;;;;5087134;28;20054;-70
2022/01/26 06:43:05;;;;;;;;;;;20.50;49.20;;;;;;5079945;28;19923;-71
2022/01/26 06:45:35;;;;;;;;;;;20.50;49.20;;;;;;5084331;28;19913;-70
2022/01/26 06:50:51;;;;;;;;;;;20.50;49.30;;;;;;5068468;28;19912;-72
2022/01/26 06:53:17;;;;;;;;;;;20.50;49.30;;;;;;5080932;28;19920;-68
2022/01/26 06:55:42;;;;;;;;;;;20.50;49.30;;;;;;5083055;28;19912;-70
2022/01/26 06:58:08;;;;;;;;;;;20.50;49.30;;;;;;5079514;28;19961;-69
2022/01/26 07:00:34;;;;;;;;;;;20.50;49.40;;;;;;5080735;28;20352;-73
2022/01/26 07:02:59;;;;;;;;;;;20.50;50.60;;;;;;5085863;28;20394;-72
2022/01/26 07:05:25;;;;;;;;;;;20.70;50.90;;;;;;5084535;28;19912;-71
2022/01/26 07:07:50;;;;;;;;;;;20.90;50.70;;;;;;5084509;28;19919;-72
2022/01/26 07:10:16;;;;;;;;;;;21.00;50.20;;;;;;5083850;28;19977;-69
2022/01/26 07:12:42;;;;;;;;;;;21.10;49.80;;;;;;5084806;28;20241;-70
2022/01/26 07:23:05;;;;;;;;;;;21.60;49.10;;;;;;5089714;28;19912;-70
2022/01/26 07:25:31;;;;;;;;;;;21.80;48.90;;;;;;5085048;28;20074;-70
2022/01/26 07:27:57;;;;;;;;;;;21.90;48.50;;;;;;5084135;28;19912;-72
2022/01/26 07:30:23;;;;;;;;;;;22.00;48.20;;;;;;5087136;28;19916;-69
2022/01/26 07:32:48;;;;;;;;;;;22.10;48.00;;;;;;5086504;28;19923;-71
2022/01/26 07:35:14;;;;;;;;;;;22.30;47.80;;;;;;5091289;28;20376;-70
2022/01/26 07:37:42;;;;;;;;;;;22.40;47.60;;;;;;5079394;28;20372;-70
2022/01/26 07:40:09;;;;;;;;;;;22.40;47.20;;;;;;5086446;28;19928;-69
2022/01/26 07:42:35;;;;;;;;;;;22.30;47.40;;;;;;5084041;28;19916;-70
2022/01/26 07:45:01;;;;;;;;;;;22.20;47.50;;;;;;5087670;28;19938;-70
2022/01/26 07:47:27;;;;;;;;;;;22.10;47.50;;;;;;5088562;28;20007;-72
2022/01/26 07:49:55;;;;;;;;;;;22.10;47.60;;;;;;5090345;28;20420;-70
2022/01/26 07:52:22;;;;;;;;;;;22.10;47.70;;;;;;5087696;28;19919;-72
2022/01/26 07:54:51;;;;;;;;;;;22.10;47.70;;;;;;5092255;28;20040;-67
2022/01/26 07:57:18;;;;;;;;;;;22.10;47.70;;;;;;5084987;28;19915;-68
2022/01/26 07:59:43;;;;;;;;;;;22.10;47.70;;;;;;5089201;28;20479;-71
2022/01/26 08:02:09;;;;;;;;;;;22.10;47.60;;;;;;5080577;28;19984;-69
2022/01/26 08:04:34;;;;;;;;;;;22.10;47.60;;;;;;5090799;28;19916;-68
2022/01/26 08:07:00;;;;;;;;;;;22.20;47.90;;;;;;5087252;28;19916;-72
2022/01/26 08:09:26;;;;;;;;;;;22.20;47.70;;;;;;5090702;28;19916;-72
2022/01/26 08:11:52;;;;;;;;;;;22.20;48.10;;;;;;5088185;28;20030;-70
2022/01/26 08:14:18;;;;;;;;;;;22.20;47.60;;;;;;5086122;28;20042;-70
2022/01/26 08:16:44;;;;;;;;;;;22.20;47.50;;;;;;5083676;28;19995;-71
2022/01/26 08:19:12;;;;;;;;;;;22.20;47.60;;;;;;5089936;28;19977;-69
2022/01/26 08:21:38;;;;;;;;;;;22.20;47.50;;;;;;5085682;28;19927;-73
2022/01/26 08:24:12;;;;;;;;;;;22.20;47.50;;;;;;5090878;28;19912;-68
2022/01/26 08:26:41;;;;;;;;;;;22.20;47.50;;;;;;5088893;28;20287;-71
2022/01/26 08:29:14;;;;;;;;;;;22.30;47.60;;;;;;5080011;28;19965;-74
2022/01/26 08:31:40;;;;;;;;;;;22.20;47.60;;;;;;5085681;28;19931;-72
2022/01/26 08:34:05;;;;;;;;;;;22.20;47.60;;;;;;5086181;28;19919;-70
2022/01/26 08:36:31;;;;;;;;;;;22.20;47.70;;;;;;5086827;28;19912;-69
2022/01/26 08:38:56;;;;;;;;;;;22.30;47.80;;;;;;5074783;28;20333;-70
2022/01/26 08:41:23;;;;;;;;;;;22.30;47.70;;;;;;5089862;28;19912;-68
2022/01/26 08:43:48;;;;;;;;;;;22.30;47.70;;;;;;5079696;28;19920;-71
2022/01/26 08:46:17;;;;;;;;;;;22.30;47.70;;;;;;5083892;28;19922;-68
2022/01/26 08:48:42;;;;;;;;;;;22.30;48.10;;;;;;5085520;28;19912;-70
2022/01/26 08:51:08;;;;;;;;;;;22.30;47.90;;;;;;5081702;28;20008;-70
2022/01/26 08:53:33;;;;;;;;;;;22.40;48.20;;;;;;5086397;28;20386;-69
2022/01/26 08:55:59;;;;;;;;;;;22.40;48.20;;;;;;5086547;28;20010;-69
2022/01/26 08:58:24;;;;;;;;;;;22.40;47.90;;;;;;5077942;28;19917;-73
2022/01/26 09:00:50;;;;;;;;;;;22.40;48.00;;;;;;5087088;28;19981;-72
2022/01/26 09:03:15;;;;;;;;;;;22.40;48.20;;;;;;5083902;28;19927;-73
2022/01/26 09:05:41;;;;;;;;;;;22.40;47.70;;;;;;5079549;28;19925;-74
2022/01/26 09:08:06;;;;;;;;;;;22.40;47.50;;;;;;5083964;28;19912;-75
2022/01/26 09:10:34;;;;;;;;;;;22.40;47.40;;;;;;5080813;28;19912;-72
2022/01/26 09:12:59;;;;;;;;;;;22.50;47.30;;;;;;5079569;28;20393;-73
2022/01/26 09:15:27;;;;;;;;;;;22.50;47.40;;;;;;5088034;28;19992;-70
2022/01/26 09:17:53;;;;;;;;;;;22.40;47.70;;;;;;5086353;28;19913;-68
2022/01/26 09:20:19;;;;;;;;;;;22.40;47.90;;;;;;5081623;28;19982;-73
2022/01/26 09:22:44;;;;;;;;;;;22.50;48.50;;;;;;5083704;28;19955;-73
2022/01/26 09:25:10;;;;;;;;;;;22.50;48.90;;;;;;5084719;28;20049;-70
2022/01/26 09:27:36;;;;;;;;;;;22.50;49.40;;;;;;5081918;28;20391;-72
2022/01/26 09:30:02;;;;;;;;;;;22.50;49.80;;;;;;5086492;28;19912;-70
2022/01/26 09:32:28;;;;;;;;;;;22.60;49.90;;;;;;5085397;28;20000;-69
2022/01/26 09:34:53;;;;;;;;;;;22.60;49.60;;;;;;5089725;28;19920;-70
2022/01/26 09:37:19;;;;;;;;;;;22.60;50.50;;;;;;5084827;28;19917;-72
2022/01/26 09:39:45;;;;;;;;;;;22.60;51.10;;;;;;5081964;28;19985;-70
2022/01/26 09:42:11;;;;;;;;;;;22.70;51.00;;;;;;5078740;28;19920;-71
2022/01/26 09:44:37;;;;;;;;;;;22.70;51.10;;;;;;5081247;28;20291;-70
2022/01/26 09:47:04;;;;;;;;;;;22.80;51.40;;;;;;5084893;28;20007;-70
2022/01/26 09:49:33;;;;;;;;;;;22.80;51.40;;;;;;5086842;28;19916;-72
2022/01/26 09:52:05;;;;;;;;;;;22.80;51.30;;;;;;5081704;28;20217;-72
2022/01/26 09:54:30;;;;;;;;;;;22.80;51.50;;;;;;5084972;28;19930;-67
2022/01/26 09:57:02;;;;;;;;;;;22.80;51.50;;;;;;5083090;28;19920;-70
2022/01/26 09:59:28;;;;;;;;;;;22.80;51.80;;;;;;5090126;28;19932;-68
2022/01/26 10:01:54;;;;;;;;;;;22.80;52.00;;;;;;5083386;28;19912;-68
2022/01/26 10:04:28;;;;;;;;;;;22.90;52.40;;;;;;5085809;28;19918;-70
2022/01/26 10:07:04;;;;;;;;;;;22.90;52.20;;;;;;5095854;27;20368;-71
2022/01/26 10:17:41;;;;;;;;;;;23.00;52.00;;;;;;5087687;28;20353;-75
2022/01/26 10:20:09;;;;;;;;;;;23.00;52.10;;;;;;5082617;28;20238;-74
2022/01/26 10:22:35;;;;;;;;;;;23.00;52.40;;;;;;5080340;28;19935;-70
2022/01/26 10:25:03;;;;;;;;;;;23.00;53.10;;;;;;5081553;28;19912;-72
2022/01/26 10:27:39;;;;;;;;;;;23.10;52.50;;;;;;5083016;28;19916;-70
2022/01/26 10:30:06;;;;;;;;;;;23.10;52.60;;;;;;5083563;28;20332;-70
2022/01/26 10:32:35;;;;;;;;;;;23.20;52.80;;;;;;5088226;28;20006;-70
2022/01/26 10:35:01;;;;;;;;;;;23.20;52.60;;;;;;5089132;28;19920;-71
2022/01/26 10:37:27;;;;;;;;;;;23.20;53.00;;;;;;5087776;28;19911;-72
2022/01/26 10:39:56;;;;;;;;;;;23.20;52.70;;;;;;5084680;28;19925;-70
2022/01/26 10:42:24;;;;;;;;;;;23.20;52.40;;;;;;5090950;28;20097;-71
2022/01/26 10:45:02;;;;;;;;;;;23.20;53.10;;;;;;5086318;28;19916;-70
2022/01/26 10:47:31;;;;;;;;;;;23.20;52.70;;;;;;5088170;28;20383;-73
2022/01/26 10:52:41;;;;;;;;;;;23.20;53.10;;;;;;5083674;28;19923;-70
2022/01/26 10:55:07;;;;;;;;;;;23.30;53.30;;;;;;5088438;28;19920;-72
2022/01/26 10:57:35;;;;;;;;;;;23.40;53.30;;;;;;5082937;28;19920;-70
2022/01/26 11:00:02;;;;;;;;;;;23.40;53.30;;;;;;5087706;28;20303;-66
2022/01/26 11:02:30;;;;;;;;;;;23.40;53.40;;;;;;5085860;28;19951;-68
2022/01/26 11:04:56;;;;;;;;;;;23.40;53.60;;;;;;5085250;28;19912;-74
2022/01/26 11:07:29;;;;;;;;;;;23.40;53.80;;;;;;5086248;28;19916;-69
2022/01/26 11:09:55;;;;;;;;;;;23.50;53.90;;;;;;5079952;28;19923;-71
2022/01/26 11:12:28;;;;;;;;;;;23.40;54.00;;;;;;5081406;28;19915;-71
2022/01/26 11:14:57;;;;;;;;;;;23.50;54.00;;;;;;5079353;28;19981;-69
2022/01/26 11:17:27;;;;;;;;;;;23.50;54.10;;;;;;5081679;28;19923;-69
2022/01/26 11:19:54;;;;;;;;;;;23.50;52.70;;;;;;5085159;28;20468;-68
2022/01/26 11:22:26;;;;;;;;;;;23.40;52.30;;;;;;5082175;28;19916;-69
2022/01/26 11:24:51;;;;;;;;;;;23.40;51.30;;;;;;5085455;28;20411;-69
2022/01/26 11:27:17;;;;;;;;;;;23.40;50.80;;;;;;5082891;28;20026;-69
2022/01/26 11:29:48;;;;;;;;;;;23.30;50.60;;;;;;5084069;28;19927;-69
2022/01/26 11:32:27;;;;;;;;;;;23.30;44.20;;;;;;5079678;28;20292;-72
2022/01/26 11:34:54;;;;;;;;;;;23.10;39.20;;;;;;5082073;28;19970;-73
2022/01/26 11:37:47;;;;;;;;;;;22.80;38.70;;;;;;5081320;28;19920;-73
2022/01/26 11:46:07;;;;;;;;;;;22.20;37.60;;;;;;5083608;28;19935;-74
2022/01/26 11:48:32;;;;;;;;;;;22.20;41.90;;;;;;5077343;28;19921;-70
2022/01/26 11:50:59;;;;;;;;;;;22.30;43.30;;;;;;5082839;28;19941;-74
2022/01/26 11:53:26;;;;;;;;;;;22.40;44.00;;;;;;5081569;28;19924;-72
2022/01/26 11:55:59;;;;;;;;;;;22.50;44.40;;;;;;5083042;28;19931;-72
2022/01/26 11:58:29;;;;;;;;;;;22.50;44.50;;;;;;5081816;28;19923;-70
2022/01/26 12:04:08;;;;;;;;;;;22.60;45.00;;;;;;5078077;28;19916;-70
2022/01/26 12:06:36;;;;;;;;;;;22.60;45.10;;;;;;5082705;28;19931;-72
2022/01/26 12:09:03;;;;;;;;;;;22.60;45.30;;;;;;5083740;28;20364;-73
2022/01/26 12:11:29;;;;;;;;;;;22.60;45.40;;;;;;5081759;28;19958;-67
2022/01/26 12:14:02;;;;;;;;;;;22.60;45.60;;;;;;5080769;28;19927;-73
2022/01/26 12:16:32;;;;;;;;;;;22.60;45.60;;;;;;5083947;28;20268;-70
2022/01/26 12:19:11;;;;;;;;;;;22.60;45.70;;;;;;5086740;28;21490;-70
2022/01/26 12:32:51;;;;;;;;;;;22.60;47.20;;;;;;5076372;28;19923;-75
2022/01/26 12:35:26;;;;;;;;;;;22.60;47.60;;;;;;5088762;28;19952;-70
2022/01/26 12:43:35;;;;;;;;;;;22.70;48.20;;;;;;5076134;28;20261;-72
2022/01/26 12:46:01;;;;;;;;;;;22.70;48.70;;;;;;5084323;28;19920;-74
2022/01/26 12:48:27;;;;;;;;;;;22.80;48.70;;;;;;5082670;28;19938;-72
2022/01/26 12:50:53;;;;;;;;;;;22.80;48.90;;;;;;5080863;28;20399;-73
2022/01/26 12:53:23;;;;;;;;;;;22.80;49.00;;;;;;5080710;28;19924;-73
2022/01/26 12:55:52;;;;;;;;;;;22.90;49.20;;;;;;5082815;28;19916;-70
2022/01/26 12:58:31;;;;;;;;;;;22.90;49.40;;;;;;5082095;28;19924;-73
2022/01/26 13:01:05;;;;;;;;;;;22.90;49.20;;;;;;5083959;28;19916;-70
2022/01/26 13:03:32;;;;;;;;;;;23.00;49.60;;;;;;5100063;28;19920;-72
2022/01/26 13:06:05;;;;;;;;;;;23.00;49.40;;;;;;5096296;28;19916;-70
2022/01/26 13:08:44;;;;;;;;;;;23.00;49.70;;;;;;5085870;28;19923;-71
2022/01/26 13:11:10;;;;;;;;;;;23.00;49.90;;;;;;5081946;28;20002;-73
2022/01/26 13:13:36;;;;;;;;;;;23.10;50.00;;;;;;5080355;28;20023;-70
2022/01/26 13:16:13;;;;;;;;;;;23.10;49.80;;;;;;5079471;28;19947;-71
2022/01/26 13:19:11;;;;;;;;;;;23.10;50.20;;;;;;5080509;28;19969;-69
2022/01/26 13:24:36;;;;;;;;;;;23.10;50.40;;;;;;5080813;28;19934;-74
2022/01/26 13:27:28;;;;;;;;;;;23.20;50.40;;;;;;5077250;28;20708;-72
2022/01/26 13:50:55;;;;;;;;;;;23.40;50.70;;;;;;5082936;28;20031;-70
2022/01/26 13:53:34;;;;;;;;;;;23.40;50.80;;;;;;5079800;28;19993;-70
2022/01/26 13:56:15;;;;;;;;;;;23.40;51.10;;;;;;5084116;28;19934;-71
2022/01/26 13:58:58;;;;;;;;;;;23.40;51.10;;;;;;5078191;28;19916;-71
2022/01/26 14:01:23;;;;;;;;;;;23.50;51.20;;;;;;5081276;28;19916;-73
2022/01/26 14:03:53;;;;;;;;;;;23.50;51.20;;;;;;5083787;28;19999;-68
2022/01/26 14:06:19;;;;;;;;;;;23.50;51.20;;;;;;5097073;28;19920;-70
2022/01/26 14:08:45;;;;;;;;;;;23.50;51.20;;;;;;5079791;28;20292;-70
2022/01/26 14:11:10;;;;;;;;;;;23.50;51.10;;;;;;5077792;28;20283;-73
2022/01/26 14:13:37;;;;;;;;;;;23.50;51.20;;;;;;5074220;28;20335;-72
2022/01/26 14:16:04;;;;;;;;;;;23.50;51.10;;;;;;5079622;28;20003;-70
2022/01/26 14:26:19;;;;;;;;;;;23.60;51.10;;;;;;5081836;28;19935;-71
2022/01/26 14:28:45;;;;;;;;;;;23.70;51.20;;;;;;5075287;28;19920;-71
2022/01/26 14:34:51;;;;;;;;;;;23.70;51.30;;;;;;5021264;28;19929;-70
2022/01/26 15:10:23;;;;;;;;;;;23.90;51.60;;;;;;5072551;28;19976;-71
2022/01/26 15:32:31;;;;;;;;;;;24.00;51.40;;;;;;5079213;28;19927;-71
2022/01/26 15:34:41;;;;;;;;;;;24.00;51.60;;;;;;5082146;28;19924;-70
2022/01/26 15:40:08;;;;;;;;;;;24.10;51.90;;;;;;5085305;28;20007;-70
2022/01/26 15:42:50;;;;;;;;;;;24.10;52.10;;;;;;5081211;28;19942;-70
2022/01/26 15:58:34;;;;;;;;;;;24.20;52.40;;;;;;5081299;28;19966;-70
2022/01/26 16:06:55;;;;;;;;;;;24.10;46.70;;;;;;5083918;28;20725;-73
2022/01/26 16:36:48;;;;;;;;;;;23.40;46.20;;;;;;5076704;28;19920;-73
2022/01/26 16:39:20;;;;;;;;;;;23.40;46.30;;;;;;5074679;28;20198;-74
2022/01/26 17:26:12;;;;;;;;;;;23.20;46.80;;;;;;5075764;28;19923;-72
2022/01/26 18:17:18;;;;;;;;;;;23.10;46.80;;;;;;5073550;28;19943;-72
2022/01/26 18:33:20;;;;;;;;;;;23.10;46.90;;;;;;5072571;28;20415;-68
2022/01/26 18:39:03;;;;;;;;;;;23.10;47.10;;;;;;5073990;28;19970;-71
2022/01/26 18:49:38;;;;;;;;;;;23.10;47.10;;;;;;5073301;28;19916;-71
2022/01/26 18:52:04;;;;;;;;;;;23.10;47.10;;;;;;5071154;28;19920;-71
2022/01/26 18:54:33;;;;;;;;;;;23.10;47.10;;;;;;5070305;28;20284;-69
2022/01/26 18:57:01;;;;;;;;;;;23.10;47.20;;;;;;5075045;28;19923;-73
2022/01/26 18:59:27;;;;;;;;;;;23.10;47.20;;;;;;5070123;28;20001;-73
2022/01/26 19:01:53;;;;;;;;;;;23.10;47.10;;;;;;5072503;28;19920;-71
2022/01/26 19:04:29;;;;;;;;;;;23.10;47.10;;;;;;5074163;28;19963;-71
2022/01/26 19:06:54;;;;;;;;;;;23.10;47.20;;;;;;5071890;28;22034;-72
2022/01/26 19:09:26;;;;;;;;;;;23.10;47.50;;;;;;5072556;28;20043;-73
2022/01/26 19:11:52;;;;;;;;;;;23.10;47.20;;;;;;5073334;28;20070;-72
2022/01/26 19:14:18;;;;;;;;;;;23.10;47.30;;;;;;5071478;28;19936;-73
2022/01/26 19:16:53;;;;;;;;;;;23.10;47.20;;;;;;5074035;28;20390;-72
2022/01/26 19:19:32;;;;;;;;;;;23.10;47.20;;;;;;5074939;28;19927;-68
2022/01/26 19:22:17;;;;;;;;;;;23.10;47.20;;;;;;5072651;28;19916;-74
2022/01/26 19:24:56;;;;;;;;;;;23.10;47.20;;;;;;5074720;28;19999;-68
2022/01/26 19:27:30;;;;;;;;;;;23.10;47.20;;;;;;5074907;28;20085;-71
2022/01/26 19:30:41;;;;;;;;;;;23.10;47.20;;;;;;5077559;28;19920;-69
2022/01/26 19:51:23;;;;;;;;;;;22.90;47.10;;;;;;5073122;28;20360;-68
2022/01/26 19:53:49;;;;;;;;;;;22.90;47.10;;;;;;5075854;28;20734;-70
2022/01/26 19:56:14;;;;;;;;;;;22.80;47.10;;;;;;5075455;28;20540;-70
2022/01/26 19:58:40;;;;;;;;;;;22.80;47.00;;;;;;5072274;28;19992;-69
2022/01/26 20:01:06;;;;;;;;;;;22.80;47.10;;;;;;5076344;28;19920;-70
2022/01/26 20:03:34;;;;;;;;;;;22.80;47.00;;;;;;5076780;28;20659;-69
2022/01/26 20:06:00;;;;;;;;;;;22.80;47.10;;;;;;5075136;28;20008;-70
2022/01/26 20:08:35;;;;;;;;;;;22.80;47.20;;;;;;5077785;28;19916;-69
2022/01/26 20:11:06;;;;;;;;;;;22.70;47.20;;;;;;5076647;28;19916;-73
2022/01/26 20:13:37;;;;;;;;;;;22.70;47.30;;;;;;5071274;28;19924;-72
2022/01/26 20:16:03;;;;;;;;;;;22.60;47.20;;;;;;5070600;28;20057;-73
2022/01/26 20:18:28;;;;;;;;;;;22.60;47.40;;;;;;5073809;28;20014;-70
2022/01/26 20:20:59;;;;;;;;;;;22.60;47.40;;;;;;5074136;28;22429;-71
2022/01/26 20:23:27;;;;;;;;;;;22.60;47.40;;;;;;5075744;28;19980;-73
2022/01/26 20:25:58;;;;;;;;;;;22.60;47.40;;;;;;5074349;28;19924;-73
2022/01/26 20:28:25;;;;;;;;;;;22.60;47.40;;;;;;5071768;28;19920;-68
2022/01/26 20:30:51;;;;;;;;;;;22.70;47.40;;;;;;5081047;28;19920;-70
2022/01/26 20:33:17;;;;;;;;;;;22.70;47.40;;;;;;5076464;28;19916;-70
2022/01/26 20:35:43;;;;;;;;;;;22.70;47.40;;;;;;5078108;28;20379;-74
2022/01/26 20:38:08;;;;;;;;;;;22.70;47.40;;;;;;5076871;28;19916;-73
2022/01/26 20:40:34;;;;;;;;;;;22.70;47.40;;;;;;5077437;28;19963;-69
2022/01/26 20:43:00;;;;;;;;;;;22.70;47.40;;;;;;5077694;28;19971;-69
2022/01/26 20:45:27;;;;;;;;;;;22.70;47.40;;;;;;5076104;28;20593;-71
2022/01/26 20:47:55;;;;;;;;;;;22.70;47.40;;;;;;5075180;28;19920;-68
2022/01/26 20:50:21;;;;;;;;;;;22.70;47.40;;;;;;5077095;28;19917;-72
2022/01/26 20:52:46;;;;;;;;;;;22.70;47.40;;;;;;5076576;28;20445;-74
2022/01/26 20:55:13;;;;;;;;;;;22.80;47.60;;;;;;5073171;28;19931;-71
2022/01/26 20:57:39;;;;;;;;;;;22.80;47.70;;;;;;5073176;28;19920;-73